sensor_id;sensor_type;location;lat;lon;timestamp;P1;durP1;ratioP1;P2;durP2;ratioP2
10029;SDS011;5055;52.054;8.524;2022-09-01T00:00:27;0.10;;;0.10;;
10029;SDS011;5055;52.054;8.524;2022-09-01T00:02:57;0.30;;;0.30;;
10029;SDS011;5055;52.054;8.524;2022-09-01T00:05:26;0.20;;;0.20;;
10029;SDS011;5055;52.054;8.524;2022-09-01T00:07:54;0.20;;;0.20;;
10029;SDS011;5055;52.054;8.524;2022-09-01T00:10:22;0.20;;;0.20;;
10029;SDS011;5055;52.054;8.524;2022-09-01T00:12:51;0.20;;;0.20;;
10029;SDS011;5055;52.054;8.524;2022-09-01T00:15:19;0.20;;;0.20;;
10029;SDS011;5055;52.054;8.524;2022-09-01T00:17:48;0.20;;;0.20;;
10029;SDS011;5055;52.054;8.524;2022-09-01T00:20:17;0.30;;;0.30;;
10029;SDS011;5055;52.054;8.524;2022-09-01T00:22:46;0.20;;;0.20;;
10029;SDS011;5055;52.054;8.524;2022-09-01T00:25:15;0.20;;;0.20;;
10029;SDS011;5055;52.054;8.524;2022-09-01T00:27:45;0.30;;;0.30;;
10029;SDS011;5055;52.054;8.524;2022-09-01T00:30:14;0.30;;;0.30;;
10029;SDS011;5055;52.054;8.524;2022-09-01T00:32:44;0.20;;;0.20;;
10029;SDS011;5055;52.054;8.524;2022-09-01T00:35:13;0.20;;;0.20;;
10029;SDS011;5055;52.054;8.524;2022-09-01T00:37:43;0.30;;;0.30;;
10029;SDS011;5055;52.054;8.524;2022-09-01T00:40:12;0.30;;;0.30;;
10029;SDS011;5055;52.054;8.524;2022-09-01T00:42:43;0.27;;;0.27;;
10029;SDS011;5055;52.054;8.524;2022-09-01T00:45:11;0.20;;;0.20;;
10029;SDS011;5055;52.054;8.524;2022-09-01T00:47:40;0.20;;;0.20;;
10029;SDS011;5055;52.054;8.524;2022-09-01T00:50:10;0.30;;;0.30;;
10029;SDS011;5055;52.054;8.524;2022-09-01T00:52:43;0.20;;;0.20;;
10029;SDS011;5055;52.054;8.524;2022-09-01T00:55:17;0.20;;;0.20;;
10029;SDS011;5055;52.054;8.524;2022-09-01T00:57:51;0.23;;;0.23;;
10029;SDS011;5055;52.054;8.524;2022-09-01T01:00:20;0.20;;;0.20;;
10029;SDS011;5055;52.054;8.524;2022-09-01T01:02:50;0.20;;;0.20;;
10029;SDS011;5055;52.054;8.524;2022-09-01T01:05:22;0.20;;;0.20;;
10029;SDS011;5055;52.054;8.524;2022-09-01T01:07:54;0.20;;;0.20;;
10029;SDS011;5055;52.054;8.524;2022-09-01T01:10:23;0.30;;;0.30;;
10029;SDS011;5055;52.054;8.524;2022-09-01T01:12:52;0.30;;;0.30;;
10029;SDS011;5055;52.054;8.524;2022-09-01T01:15:21;0.20;;;0.20;;
10029;SDS011;5055;52.054;8.524;2022-09-01T01:17:49;0.30;;;0.30;;
10029;SDS011;5055;52.054;8.524;2022-09-01T01:20:17;0.30;;;0.30;;
10029;SDS011;5055;52.054;8.524;2022-09-01T01:23:09;0.30;;;0.30;;
10029;SDS011;5055;52.054;8.524;2022-09-01T01:25:45;0.30;;;0.30;;
10029;SDS011;5055;52.054;8.524;2022-09-01T01:28:16;0.20;;;0.20;;
10029;SDS011;5055;52.054;8.524;2022-09-01T01:30:48;0.30;;;0.30;;
10029;SDS011;5055;52.054;8.524;2022-09-01T01:33:19;0.20;;;0.20;;
10029;SDS011;5055;52.054;8.524;2022-09-01T01:35:49;0.27;;;0.27;;
10029;SDS011;5055;52.054;8.524;2022-09-01T01:38:19;0.30;;;0.30;;
10029;SDS011;5055;52.054;8.524;2022-09-01T01:40:50;0.20;;;0.20;;
10029;SDS011;5055;52.054;8.524;2022-09-01T01:43:19;0.30;;;0.30;;
10029;SDS011;5055;52.054;8.524;2022-09-01T01:45:49;0.20;;;0.20;;
10029;SDS011;5055;52.054;8.524;2022-09-01T01:48:20;0.23;;;0.23;;
10029;SDS011;5055;52.054;8.524;2022-09-01T01:50:50;0.30;;;0.30;;
10029;SDS011;5055;52.054;8.524;2022-09-01T01:53:20;0.30;;;0.30;;
10029;SDS011;5055;52.054;8.524;2022-09-01T01:55:50;0.30;;;0.30;;
10029;SDS011;5055;52.054;8.524;2022-09-01T01:58:19;0.30;;;0.30;;
10029;SDS011;5055;52.054;8.524;2022-09-01T02:00:51;0.20;;;0.20;;
10029;SDS011;5055;52.054;8.524;2022-09-01T02:03:21;0.20;;;0.20;;
10029;SDS011;5055;52.054;8.524;2022-09-01T02:05:52;0.30;;;0.30;;
10029;SDS011;5055;52.054;8.524;2022-09-01T02:08:22;0.20;;;0.20;;
10029;SDS011;5055;52.054;8.524;2022-09-01T02:10:53;0.20;;;0.20;;
10029;SDS011;5055;52.054;8.524;2022-09-01T02:13:23;0.30;;;0.30;;
10029;SDS011;5055;52.054;8.524;2022-09-01T02:15:57;0.30;;;0.30;;
10029;SDS011;5055;52.054;8.524;2022-09-01T02:18:28;0.23;;;0.23;;
10029;SDS011;5055;52.054;8.524;2022-09-01T02:21:02;0.20;;;0.20;;
10029;SDS011;5055;52.054;8.524;2022-09-01T02:23:43;0.30;;;0.30;;
10029;SDS011;5055;52.054;8.524;2022-09-01T02:26:13;0.30;;;0.30;;
10029;SDS011;5055;52.054;8.524;2022-09-01T02:28:45;0.30;;;0.30;;
10029;SDS011;5055;52.054;8.524;2022-09-01T02:31:21;0.20;;;0.20;;
10029;SDS011;5055;52.054;8.524;2022-09-01T02:33:50;0.30;;;0.30;;
10029;SDS011;5055;52.054;8.524;2022-09-01T02:36:20;0.20;;;0.20;;
10029;SDS011;5055;52.054;8.524;2022-09-01T02:38:50;0.20;;;0.20;;
10029;SDS011;5055;52.054;8.524;2022-09-01T02:41:23;0.20;;;0.20;;
10029;SDS011;5055;52.054;8.524;2022-09-01T02:43:55;0.30;;;0.30;;
10029;SDS011;5055;52.054;8.524;2022-09-01T02:46:25;0.30;;;0.30;;
10029;SDS011;5055;52.054;8.524;2022-09-01T02:48:54;0.30;;;0.30;;
10029;SDS011;5055;52.054;8.524;2022-09-01T02:51:26;0.30;;;0.30;;
10029;SDS011;5055;52.054;8.524;2022-09-01T02:53:54;0.20;;;0.20;;
10029;SDS011;5055;52.054;8.524;2022-09-01T02:56:24;0.20;;;0.20;;
10029;SDS011;5055;52.054;8.524;2022-09-01T02:58:53;0.30;;;0.30;;
10029;SDS011;5055;52.054;8.524;2022-09-01T03:01:22;0.30;;;0.30;;
10029;SDS011;5055;52.054;8.524;2022-09-01T03:03:53;0.20;;;0.20;;
10029;SDS011;5055;52.054;8.524;2022-09-01T03:06:23;0.30;;;0.30;;
10029;SDS011;5055;52.054;8.524;2022-09-01T03:08:54;0.30;;;0.30;;
10029;SDS011;5055;52.054;8.524;2022-09-01T03:11:26;0.30;;;0.30;;
10029;SDS011;5055;52.054;8.524;2022-09-01T03:13:55;0.30;;;0.30;;
10029;SDS011;5055;52.054;8.524;2022-09-01T03:16:24;0.30;;;0.30;;
10029;SDS011;5055;52.054;8.524;2022-09-01T03:18:53;0.20;;;0.20;;
10029;SDS011;5055;52.054;8.524;2022-09-01T03:21:21;0.30;;;0.30;;
10029;SDS011;5055;52.054;8.524;2022-09-01T03:23:50;0.30;;;0.30;;
10029;SDS011;5055;52.054;8.524;2022-09-01T03:26:19;0.30;;;0.30;;
10029;SDS011;5055;52.054;8.524;2022-09-01T03:28:50;0.20;;;0.20;;
10029;SDS011;5055;52.054;8.524;2022-09-01T03:31:19;0.20;;;0.20;;
10029;SDS011;5055;52.054;8.524;2022-09-01T03:33:48;0.30;;;0.30;;
10029;SDS011;5055;52.054;8.524;2022-09-01T03:36:16;0.30;;;0.30;;
10029;SDS011;5055;52.054;8.524;2022-09-01T03:38:45;0.20;;;0.20;;
10029;SDS011;5055;52.054;8.524;2022-09-01T03:41:15;0.20;;;0.20;;
10029;SDS011;5055;52.054;8.524;2022-09-01T03:43:45;0.20;;;0.20;;
10029;SDS011;5055;52.054;8.524;2022-09-01T03:46:16;0.20;;;0.20;;
10029;SDS011;5055;52.054;8.524;2022-09-01T03:48:48;0.30;;;0.30;;
10029;SDS011;5055;52.054;8.524;2022-09-01T03:51:18;0.20;;;0.20;;
10029;SDS011;5055;52.054;8.524;2022-09-01T03:53:48;0.30;;;0.30;;
10029;SDS011;5055;52.054;8.524;2022-09-01T03:56:20;0.30;;;0.30;;
10029;SDS011;5055;52.054;8.524;2022-09-01T03:58:50;0.30;;;0.30;;
10029;SDS011;5055;52.054;8.524;2022-09-01T04:01:23;0.30;;;0.30;;
10029;SDS011;5055;52.054;8.524;2022-09-01T04:03:54;0.23;;;0.23;;
10029;SDS011;5055;52.054;8.524;2022-09-01T04:06:23;0.20;;;0.20;;
10029;SDS011;5055;52.054;8.524;2022-09-01T04:08:51;0.20;;;0.20;;
10029;SDS011;5055;52.054;8.524;2022-09-01T04:11:23;0.20;;;0.20;;
10029;SDS011;5055;52.054;8.524;2022-09-01T04:13:51;0.30;;;0.30;;
10029;SDS011;5055;52.054;8.524;2022-09-01T04:16:20;0.20;;;0.20;;
10029;SDS011;5055;52.054;8.524;2022-09-01T04:19:10;0.20;;;0.20;;
10029;SDS011;5055;52.054;8.524;2022-09-01T04:21:46;0.20;;;0.20;;
10029;SDS011;5055;52.054;8.524;2022-09-01T04:24:15;0.30;;;0.30;;
10029;SDS011;5055;52.054;8.524;2022-09-01T04:26:45;0.20;;;0.20;;
10029;SDS011;5055;52.054;8.524;2022-09-01T04:29:15;0.30;;;0.30;;
10029;SDS011;5055;52.054;8.524;2022-09-01T04:31:46;0.30;;;0.30;;
10029;SDS011;5055;52.054;8.524;2022-09-01T04:34:19;0.30;;;0.30;;
10029;SDS011;5055;52.054;8.524;2022-09-01T04:36:49;0.30;;;0.30;;
10029;SDS011;5055;52.054;8.524;2022-09-01T04:39:22;0.20;;;0.20;;
10029;SDS011;5055;52.054;8.524;2022-09-01T04:41:50;0.30;;;0.30;;
10029;SDS011;5055;52.054;8.524;2022-09-01T04:44:19;0.20;;;0.20;;
10029;SDS011;5055;52.054;8.524;2022-09-01T04:46:49;0.37;;;0.37;;
10029;SDS011;5055;52.054;8.524;2022-09-01T04:49:18;0.30;;;0.30;;
10029;SDS011;5055;52.054;8.524;2022-09-01T04:51:52;0.20;;;0.20;;
10029;SDS011;5055;52.054;8.524;2022-09-01T04:54:20;0.40;;;0.40;;
10029;SDS011;5055;52.054;8.524;2022-09-01T04:56:50;0.30;;;0.30;;
10029;SDS011;5055;52.054;8.524;2022-09-01T04:59:21;0.30;;;0.30;;
10029;SDS011;5055;52.054;8.524;2022-09-01T05:01:53;0.30;;;0.30;;
10029;SDS011;5055;52.054;8.524;2022-09-01T05:04:27;0.20;;;0.20;;
10029;SDS011;5055;52.054;8.524;2022-09-01T05:06:59;0.40;;;0.40;;
10029;SDS011;5055;52.054;8.524;2022-09-01T05:09:29;0.30;;;0.30;;
10029;SDS011;5055;52.054;8.524;2022-09-01T05:12:00;0.30;;;0.30;;
10029;SDS011;5055;52.054;8.524;2022-09-01T05:14:42;0.30;;;0.30;;
10029;SDS011;5055;52.054;8.524;2022-09-01T05:17:15;0.40;;;0.40;;
10029;SDS011;5055;52.054;8.524;2022-09-01T05:19:44;0.30;;;0.30;;
10029;SDS011;5055;52.054;8.524;2022-09-01T05:22:14;0.30;;;0.30;;
10029;SDS011;5055;52.054;8.524;2022-09-01T05:24:47;0.20;;;0.20;;
10029;SDS011;5055;52.054;8.524;2022-09-01T05:27:20;0.27;;;0.27;;
10029;SDS011;5055;52.054;8.524;2022-09-01T05:29:49;0.30;;;0.30;;
10029;SDS011;5055;52.054;8.524;2022-09-01T05:32:20;0.20;;;0.20;;
10029;SDS011;5055;52.054;8.524;2022-09-01T05:34:51;0.30;;;0.30;;
10029;SDS011;5055;52.054;8.524;2022-09-01T05:37:19;0.23;;;0.23;;
10029;SDS011;5055;52.054;8.524;2022-09-01T05:39:48;0.20;;;0.20;;
10029;SDS011;5055;52.054;8.524;2022-09-01T05:42:17;0.20;;;0.20;;
10029;SDS011;5055;52.054;8.524;2022-09-01T05:44:46;0.20;;;0.20;;
10029;SDS011;5055;52.054;8.524;2022-09-01T05:47:18;0.30;;;0.30;;
10029;SDS011;5055;52.054;8.524;2022-09-01T05:49:48;0.20;;;0.20;;
10029;SDS011;5055;52.054;8.524;2022-09-01T05:52:18;0.30;;;0.30;;
10029;SDS011;5055;52.054;8.524;2022-09-01T05:54:51;0.30;;;0.30;;
10029;SDS011;5055;52.054;8.524;2022-09-01T05:57:20;0.20;;;0.20;;
10029;SDS011;5055;52.054;8.524;2022-09-01T06:00:01;0.20;;;0.20;;
10029;SDS011;5055;52.054;8.524;2022-09-01T06:02:36;0.20;;;0.20;;
10029;SDS011;5055;52.054;8.524;2022-09-01T06:05:07;0.23;;;0.23;;
10029;SDS011;5055;52.054;8.524;2022-09-01T06:07:36;0.23;;;0.23;;
10029;SDS011;5055;52.054;8.524;2022-09-01T06:10:08;0.20;;;0.20;;
10029;SDS011;5055;52.054;8.524;2022-09-01T06:12:38;0.20;;;0.20;;
10029;SDS011;5055;52.054;8.524;2022-09-01T06:15:08;0.30;;;0.30;;
10029;SDS011;5055;52.054;8.524;2022-09-01T06:17:41;0.20;;;0.20;;
10029;SDS011;5055;52.054;8.524;2022-09-01T06:20:12;0.20;;;0.20;;
10029;SDS011;5055;52.054;8.524;2022-09-01T06:22:43;0.20;;;0.20;;
10029;SDS011;5055;52.054;8.524;2022-09-01T06:25:13;0.20;;;0.20;;
10029;SDS011;5055;52.054;8.524;2022-09-01T06:27:42;0.20;;;0.20;;
10029;SDS011;5055;52.054;8.524;2022-09-01T06:30:13;0.20;;;0.20;;
10029;SDS011;5055;52.054;8.524;2022-09-01T06:32:50;0.20;;;0.20;;
10029;SDS011;5055;52.054;8.524;2022-09-01T06:35:20;0.20;;;0.20;;
10029;SDS011;5055;52.054;8.524;2022-09-01T06:37:54;0.20;;;0.20;;
10029;SDS011;5055;52.054;8.524;2022-09-01T06:40:23;0.10;;;0.10;;
10029;SDS011;5055;52.054;8.524;2022-09-01T06:42:52;0.20;;;0.20;;
10029;SDS011;5055;52.054;8.524;2022-09-01T06:45:21;0.20;;;0.20;;
10029;SDS011;5055;52.054;8.524;2022-09-01T06:47:50;0.20;;;0.20;;
10029;SDS011;5055;52.054;8.524;2022-09-01T06:50:26;0.20;;;0.20;;
10029;SDS011;5055;52.054;8.524;2022-09-01T06:53:15;0.20;;;0.20;;
10029;SDS011;5055;52.054;8.524;2022-09-01T06:56:01;0.10;;;0.10;;
10029;SDS011;5055;52.054;8.524;2022-09-01T06:58:29;0.20;;;0.20;;
10029;SDS011;5055;52.054;8.524;2022-09-01T07:00:58;0.10;;;0.10;;
10029;SDS011;5055;52.054;8.524;2022-09-01T07:03:31;0.20;;;0.20;;
10029;SDS011;5055;52.054;8.524;2022-09-01T07:06:03;0.23;;;0.23;;
10029;SDS011;5055;52.054;8.524;2022-09-01T07:08:32;0.13;;;0.13;;
10029;SDS011;5055;52.054;8.524;2022-09-01T07:11:25;0.20;;;0.20;;
10029;SDS011;5055;52.054;8.524;2022-09-01T07:14:16;0.10;;;0.10;;
10029;SDS011;5055;52.054;8.524;2022-09-01T07:16:44;0.17;;;0.17;;
10029;SDS011;5055;52.054;8.524;2022-09-01T07:19:18;0.20;;;0.20;;
10029;SDS011;5055;52.054;8.524;2022-09-01T07:21:48;0.10;;;0.10;;
10029;SDS011;5055;52.054;8.524;2022-09-01T07:24:32;0.20;;;0.20;;
10029;SDS011;5055;52.054;8.524;2022-09-01T07:27:01;0.20;;;0.20;;
10029;SDS011;5055;52.054;8.524;2022-09-01T07:29:36;0.10;;;0.10;;
10029;SDS011;5055;52.054;8.524;2022-09-01T07:32:07;0.17;;;0.17;;
10029;SDS011;5055;52.054;8.524;2022-09-01T07:34:56;0.20;;;0.20;;
10029;SDS011;5055;52.054;8.524;2022-09-01T07:37:27;0.13;;;0.13;;
10029;SDS011;5055;52.054;8.524;2022-09-01T07:40:18;0.20;;;0.20;;
10029;SDS011;5055;52.054;8.524;2022-09-01T07:43:11;0.10;;;0.10;;
10029;SDS011;5055;52.054;8.524;2022-09-01T07:45:45;0.20;;;0.20;;
10029;SDS011;5055;52.054;8.524;2022-09-01T07:48:34;0.20;;;0.20;;
10029;SDS011;5055;52.054;8.524;2022-09-01T07:51:23;0.10;;;0.10;;
10029;SDS011;5055;52.054;8.524;2022-09-01T07:54:04;0.20;;;0.20;;
10029;SDS011;5055;52.054;8.524;2022-09-01T07:56:32;0.13;;;0.13;;
10029;SDS011;5055;52.054;8.524;2022-09-01T07:59:05;0.10;;;0.10;;
10029;SDS011;5055;52.054;8.524;2022-09-01T08:01:40;0.13;;;0.13;;
10029;SDS011;5055;52.054;8.524;2022-09-01T08:04:09;0.20;;;0.20;;
10029;SDS011;5055;52.054;8.524;2022-09-01T08:06:37;0.10;;;0.10;;
10029;SDS011;5055;52.054;8.524;2022-09-01T08:09:07;0.10;;;0.10;;
10029;SDS011;5055;52.054;8.524;2022-09-01T08:11:37;0.10;;;0.10;;
10029;SDS011;5055;52.054;8.524;2022-09-01T08:14:25;0.10;;;0.10;;
10029;SDS011;5055;52.054;8.524;2022-09-01T08:16:59;0.17;;;0.17;;
10029;SDS011;5055;52.054;8.524;2022-09-01T08:19:42;0.20;;;0.20;;
10029;SDS011;5055;52.054;8.524;2022-09-01T08:22:12;0.20;;;0.20;;
10029;SDS011;5055;52.054;8.524;2022-09-01T08:24:41;0.10;;;0.10;;
10029;SDS011;5055;52.054;8.524;2022-09-01T08:27:10;0.10;;;0.10;;
10029;SDS011;5055;52.054;8.524;2022-09-01T08:29:39;0.10;;;0.10;;
10029;SDS011;5055;52.054;8.524;2022-09-01T08:32:07;0.10;;;0.10;;
10029;SDS011;5055;52.054;8.524;2022-09-01T08:34:36;0.10;;;0.10;;
10029;SDS011;5055;52.054;8.524;2022-09-01T08:37:05;0.10;;;0.10;;
10029;SDS011;5055;52.054;8.524;2022-09-01T08:39:33;0.10;;;0.10;;
10029;SDS011;5055;52.054;8.524;2022-09-01T08:42:05;0.10;;;0.10;;
10029;SDS011;5055;52.054;8.524;2022-09-01T08:44:43;0.10;;;0.10;;
10029;SDS011;5055;52.054;8.524;2022-09-01T08:47:18;0.13;;;0.13;;
10029;SDS011;5055;52.054;8.524;2022-09-01T08:50:05;0.20;;;0.20;;
10029;SDS011;5055;52.054;8.524;2022-09-01T08:52:34;0.20;;;0.20;;
10029;SDS011;5055;52.054;8.524;2022-09-01T08:55:08;0.10;;;0.10;;
10029;SDS011;5055;52.054;8.524;2022-09-01T08:57:44;0.10;;;0.10;;
10029;SDS011;5055;52.054;8.524;2022-09-01T09:00:24;0.20;;;0.20;;
10029;SDS011;5055;52.054;8.524;2022-09-01T09:02:57;0.20;;;0.20;;
10029;SDS011;5055;52.054;8.524;2022-09-01T09:05:36;0.20;;;0.20;;
10029;SDS011;5055;52.054;8.524;2022-09-01T09:11:15;0.10;;;0.10;;
10029;SDS011;5055;52.054;8.524;2022-09-01T09:14:05;0.10;;;0.10;;
10029;SDS011;5055;52.054;8.524;2022-09-01T09:16:42;0.20;;;0.20;;
10029;SDS011;5055;52.054;8.524;2022-09-01T09:19:21;0.10;;;0.10;;
10029;SDS011;5055;52.054;8.524;2022-09-01T09:21:52;0.10;;;0.10;;
10029;SDS011;5055;52.054;8.524;2022-09-01T09:24:23;0.20;;;0.20;;
10029;SDS011;5055;52.054;8.524;2022-09-01T09:27:04;0.10;;;0.10;;
10029;SDS011;5055;52.054;8.524;2022-09-01T09:29:36;0.10;;;0.10;;
10029;SDS011;5055;52.054;8.524;2022-09-01T09:32:05;0.10;;;0.10;;
10029;SDS011;5055;52.054;8.524;2022-09-01T09:34:54;0.10;;;0.10;;
10029;SDS011;5055;52.054;8.524;2022-09-01T09:37:25;0.10;;;0.10;;
10029;SDS011;5055;52.054;8.524;2022-09-01T09:42:57;0.10;;;0.10;;
10029;SDS011;5055;52.054;8.524;2022-09-01T09:45:31;0.10;;;0.10;;
10029;SDS011;5055;52.054;8.524;2022-09-01T09:48:06;0.10;;;0.10;;
10029;SDS011;5055;52.054;8.524;2022-09-01T09:50:37;0.10;;;0.10;;
10029;SDS011;5055;52.054;8.524;2022-09-01T09:53:11;0.10;;;0.10;;
10029;SDS011;5055;52.054;8.524;2022-09-01T09:58:36;0.20;;;0.20;;
10029;SDS011;5055;52.054;8.524;2022-09-01T10:01:09;0.10;;;0.10;;
10029;SDS011;5055;52.054;8.524;2022-09-01T10:03:44;0.10;;;0.10;;
10029;SDS011;5055;52.054;8.524;2022-09-01T10:06:28;0.10;;;0.10;;
10029;SDS011;5055;52.054;8.524;2022-09-01T10:08:59;0.10;;;0.10;;
10029;SDS011;5055;52.054;8.524;2022-09-01T10:11:32;0.10;;;0.10;;
10029;SDS011;5055;52.054;8.524;2022-09-01T10:14:08;0.10;;;0.10;;
10029;SDS011;5055;52.054;8.524;2022-09-01T10:17:02;0.10;;;0.10;;
10029;SDS011;5055;52.054;8.524;2022-09-01T10:19:34;0.10;;;0.10;;
10029;SDS011;5055;52.054;8.524;2022-09-01T10:22:07;0.10;;;0.10;;
10029;SDS011;5055;52.054;8.524;2022-09-01T10:24:37;0.10;;;0.10;;
10029;SDS011;5055;52.054;8.524;2022-09-01T10:27:12;0.10;;;0.10;;
10029;SDS011;5055;52.054;8.524;2022-09-01T10:29:46;0.13;;;0.13;;
10029;SDS011;5055;52.054;8.524;2022-09-01T10:32:39;0.10;;;0.10;;
10029;SDS011;5055;52.054;8.524;2022-09-01T10:35:20;0.10;;;0.10;;
10029;SDS011;5055;52.054;8.524;2022-09-01T10:37:51;0.10;;;0.10;;
10029;SDS011;5055;52.054;8.524;2022-09-01T10:40:34;0.20;;;0.20;;
10029;SDS011;5055;52.054;8.524;2022-09-01T10:43:26;0.10;;;0.10;;
10029;SDS011;5055;52.054;8.524;2022-09-01T10:46:07;0.10;;;0.10;;
10029;SDS011;5055;52.054;8.524;2022-09-01T10:49:17;0.10;;;0.10;;
10029;SDS011;5055;52.054;8.524;2022-09-01T10:51:53;0.10;;;0.10;;
10029;SDS011;5055;52.054;8.524;2022-09-01T10:57:35;0.10;;;0.10;;
10029;SDS011;5055;52.054;8.524;2022-09-01T11:03:48;0.10;;;0.10;;
10029;SDS011;5055;52.054;8.524;2022-09-01T11:06:33;0.10;;;0.10;;
10029;SDS011;5055;52.054;8.524;2022-09-01T11:09:38;0.17;;;0.17;;
10029;SDS011;5055;52.054;8.524;2022-09-01T11:15:32;0.10;;;0.10;;
10029;SDS011;5055;52.054;8.524;2022-09-01T11:18:07;0.10;;;0.10;;
10029;SDS011;5055;52.054;8.524;2022-09-01T11:20:37;0.10;;;0.10;;
10029;SDS011;5055;52.054;8.524;2022-09-01T11:23:09;0.10;;;0.10;;
10029;SDS011;5055;52.054;8.524;2022-09-01T11:25:41;0.10;;;0.10;;
10029;SDS011;5055;52.054;8.524;2022-09-01T11:31:19;0.13;;;0.13;;
10029;SDS011;5055;52.054;8.524;2022-09-01T11:33:56;0.10;;;0.10;;
10029;SDS011;5055;52.054;8.524;2022-09-01T11:36:31;0.10;;;0.10;;
10029;SDS011;5055;52.054;8.524;2022-09-01T11:39:06;0.10;;;0.10;;
10029;SDS011;5055;52.054;8.524;2022-09-01T11:41:45;0.10;;;0.10;;
10029;SDS011;5055;52.054;8.524;2022-09-01T11:44:27;0.17;;;0.17;;
10029;SDS011;5055;52.054;8.524;2022-09-01T11:47:01;0.10;;;0.10;;
10029;SDS011;5055;52.054;8.524;2022-09-01T11:49:39;0.10;;;0.10;;
10029;SDS011;5055;52.054;8.524;2022-09-01T11:52:14;0.10;;;0.10;;
10029;SDS011;5055;52.054;8.524;2022-09-01T11:54:44;0.10;;;0.10;;
10029;SDS011;5055;52.054;8.524;2022-09-01T11:57:16;0.10;;;0.10;;
10029;SDS011;5055;52.054;8.524;2022-09-01T11:59:49;0.10;;;0.10;;
10029;SDS011;5055;52.054;8.524;2022-09-01T12:02:19;0.17;;;0.17;;
10029;SDS011;5055;52.054;8.524;2022-09-01T12:04:50;0.10;;;0.10;;
10029;SDS011;5055;52.054;8.524;2022-09-01T12:10:14;0.10;;;0.10;;
10029;SDS011;5055;52.054;8.524;2022-09-01T12:12:46;0.10;;;0.10;;
10029;SDS011;5055;52.054;8.524;2022-09-01T12:15:19;0.13;;;0.13;;
10029;SDS011;5055;52.054;8.524;2022-09-01T12:17:48;0.10;;;0.10;;
10029;SDS011;5055;52.054;8.524;2022-09-01T12:20:21;0.10;;;0.10;;
10029;SDS011;5055;52.054;8.524;2022-09-01T12:22:55;0.20;;;0.20;;
10029;SDS011;5055;52.054;8.524;2022-09-01T12:25:26;0.10;;;0.10;;
10029;SDS011;5055;52.054;8.524;2022-09-01T12:27:58;0.10;;;0.10;;
10029;SDS011;5055;52.054;8.524;2022-09-01T12:30:26;0.10;;;0.10;;
10029;SDS011;5055;52.054;8.524;2022-09-01T12:32:55;0.10;;;0.10;;
10029;SDS011;5055;52.054;8.524;2022-09-01T12:35:45;0.10;;;0.10;;
10029;SDS011;5055;52.054;8.524;2022-09-01T12:38:20;0.10;;;0.10;;
10029;SDS011;5055;52.054;8.524;2022-09-01T12:40:51;0.10;;;0.10;;
10029;SDS011;5055;52.054;8.524;2022-09-01T12:43:33;0.10;;;0.10;;
10029;SDS011;5055;52.054;8.524;2022-09-01T12:46:04;0.10;;;0.10;;
10029;SDS011;5055;52.054;8.524;2022-09-01T12:48:36;0.10;;;0.10;;
10029;SDS011;5055;52.054;8.524;2022-09-01T12:51:14;0.10;;;0.10;;
10029;SDS011;5055;52.054;8.524;2022-09-01T12:53:55;0.10;;;0.10;;
10029;SDS011;5055;52.054;8.524;2022-09-01T12:56:32;0.10;;;0.10;;
10029;SDS011;5055;52.054;8.524;2022-09-01T12:59:05;0.10;;;0.10;;
10029;SDS011;5055;52.054;8.524;2022-09-01T13:01:41;0.10;;;0.10;;
10029;SDS011;5055;52.054;8.524;2022-09-01T13:04:14;0.10;;;0.10;;
10029;SDS011;5055;52.054;8.524;2022-09-01T13:06:50;0.10;;;0.10;;
10029;SDS011;5055;52.054;8.524;2022-09-01T13:09:19;0.10;;;0.10;;
10029;SDS011;5055;52.054;8.524;2022-09-01T13:11:51;0.10;;;0.10;;
10029;SDS011;5055;52.054;8.524;2022-09-01T13:14:35;0.10;;;0.10;;
10029;SDS011;5055;52.054;8.524;2022-09-01T13:17:04;0.10;;;0.10;;
10029;SDS011;5055;52.054;8.524;2022-09-01T13:19:40;0.10;;;0.10;;
10029;SDS011;5055;52.054;8.524;2022-09-01T13:22:08;0.10;;;0.10;;
10029;SDS011;5055;52.054;8.524;2022-09-01T13:24:37;0.10;;;0.10;;
10029;SDS011;5055;52.054;8.524;2022-09-01T13:27:07;0.10;;;0.10;;
10029;SDS011;5055;52.054;8.524;2022-09-01T13:29:52;0.10;;;0.10;;
10029;SDS011;5055;52.054;8.524;2022-09-01T13:32:21;0.20;;;0.20;;
10029;SDS011;5055;52.054;8.524;2022-09-01T13:34:51;0.10;;;0.10;;
10029;SDS011;5055;52.054;8.524;2022-09-01T13:37:20;0.10;;;0.10;;
10029;SDS011;5055;52.054;8.524;2022-09-01T13:39:50;0.10;;;0.10;;
10029;SDS011;5055;52.054;8.524;2022-09-01T13:42:19;0.10;;;0.10;;
10029;SDS011;5055;52.054;8.524;2022-09-01T13:44:53;0.10;;;0.10;;
10029;SDS011;5055;52.054;8.524;2022-09-01T13:47:22;0.10;;;0.10;;
10029;SDS011;5055;52.054;8.524;2022-09-01T13:49:55;0.10;;;0.10;;
10029;SDS011;5055;52.054;8.524;2022-09-01T13:52:34;0.10;;;0.10;;
10029;SDS011;5055;52.054;8.524;2022-09-01T13:55:04;0.10;;;0.10;;
10029;SDS011;5055;52.054;8.524;2022-09-01T13:57:34;0.10;;;0.10;;
10029;SDS011;5055;52.054;8.524;2022-09-01T14:00:04;0.10;;;0.10;;
10029;SDS011;5055;52.054;8.524;2022-09-01T14:02:39;0.10;;;0.10;;
10029;SDS011;5055;52.054;8.524;2022-09-01T14:05:14;0.10;;;0.10;;
10029;SDS011;5055;52.054;8.524;2022-09-01T14:07:42;0.00;;;0.00;;
10029;SDS011;5055;52.054;8.524;2022-09-01T14:10:11;0.10;;;0.10;;
10029;SDS011;5055;52.054;8.524;2022-09-01T14:12:43;0.10;;;0.10;;
10029;SDS011;5055;52.054;8.524;2022-09-01T14:15:13;0.10;;;0.10;;
10029;SDS011;5055;52.054;8.524;2022-09-01T14:17:48;0.00;;;0.00;;
10029;SDS011;5055;52.054;8.524;2022-09-01T14:20:19;0.10;;;0.10;;
10029;SDS011;5055;52.054;8.524;2022-09-01T14:22:49;0.00;;;0.00;;
10029;SDS011;5055;52.054;8.524;2022-09-01T14:25:18;0.00;;;0.00;;
10029;SDS011;5055;52.054;8.524;2022-09-01T14:27:48;0.10;;;0.10;;
10029;SDS011;5055;52.054;8.524;2022-09-01T14:30:19;0.00;;;0.00;;
10029;SDS011;5055;52.054;8.524;2022-09-01T14:32:55;0.00;;;0.00;;
10029;SDS011;5055;52.054;8.524;2022-09-01T14:35:24;0.10;;;0.10;;
10029;SDS011;5055;52.054;8.524;2022-09-01T14:37:53;0.10;;;0.10;;
10029;SDS011;5055;52.054;8.524;2022-09-01T14:40:22;0.00;;;0.00;;
10029;SDS011;5055;52.054;8.524;2022-09-01T14:42:52;0.10;;;0.10;;
10029;SDS011;5055;52.054;8.524;2022-09-01T14:45:21;0.10;;;0.10;;
10029;SDS011;5055;52.054;8.524;2022-09-01T14:47:52;0.10;;;0.10;;
10029;SDS011;5055;52.054;8.524;2022-09-01T14:50:23;0.10;;;0.10;;
10029;SDS011;5055;52.054;8.524;2022-09-01T14:52:52;0.00;;;0.00;;
10029;SDS011;5055;52.054;8.524;2022-09-01T14:55:22;0.00;;;0.00;;
10029;SDS011;5055;52.054;8.524;2022-09-01T14:57:54;0.03;;;0.03;;
10029;SDS011;5055;52.054;8.524;2022-09-01T15:00:22;0.00;;;0.00;;
10029;SDS011;5055;52.054;8.524;2022-09-01T15:02:51;0.00;;;0.00;;
10029;SDS011;5055;52.054;8.524;2022-09-01T15:05:20;0.00;;;0.00;;
10029;SDS011;5055;52.054;8.524;2022-09-01T15:07:49;0.10;;;0.10;;
10029;SDS011;5055;52.054;8.524;2022-09-01T15:10:19;0.10;;;0.10;;
10029;SDS011;5055;52.054;8.524;2022-09-01T15:12:50;0.00;;;0.00;;
10029;SDS011;5055;52.054;8.524;2022-09-01T15:15:20;0.10;;;0.10;;
10029;SDS011;5055;52.054;8.524;2022-09-01T15:17:49;0.00;;;0.00;;
10029;SDS011;5055;52.054;8.524;2022-09-01T15:20:17;0.00;;;0.00;;
10029;SDS011;5055;52.054;8.524;2022-09-01T15:23:03;0.10;;;0.10;;
10029;SDS011;5055;52.054;8.524;2022-09-01T15:25:32;0.10;;;0.10;;
10029;SDS011;5055;52.054;8.524;2022-09-01T15:28:01;0.10;;;0.10;;
10029;SDS011;5055;52.054;8.524;2022-09-01T15:30:31;0.10;;;0.10;;
10029;SDS011;5055;52.054;8.524;2022-09-01T15:33:05;0.10;;;0.10;;
10029;SDS011;5055;52.054;8.524;2022-09-01T15:35:40;0.10;;;0.10;;
10029;SDS011;5055;52.054;8.524;2022-09-01T15:38:08;0.10;;;0.10;;
10029;SDS011;5055;52.054;8.524;2022-09-01T15:40:45;0.10;;;0.10;;
10029;SDS011;5055;52.054;8.524;2022-09-01T15:43:24;0.10;;;0.10;;
10029;SDS011;5055;52.054;8.524;2022-09-01T15:45:56;0.10;;;0.10;;
10029;SDS011;5055;52.054;8.524;2022-09-01T15:48:27;0.10;;;0.10;;
10029;SDS011;5055;52.054;8.524;2022-09-01T15:51:00;0.10;;;0.10;;
10029;SDS011;5055;52.054;8.524;2022-09-01T15:53:59;0.10;;;0.10;;
10029;SDS011;5055;52.054;8.524;2022-09-01T15:56:28;0.10;;;0.10;;
10029;SDS011;5055;52.054;8.524;2022-09-01T15:58:57;0.10;;;0.10;;